sensor_id;sensor_type;location;lat;lon;timestamp;temperature;humidity
24412;DHT22;12544;46.760;15.942;2022-08-06T00:02:04;25.40;94.90
24412;DHT22;12544;46.760;15.942;2022-08-06T00:04:30;25.50;95.00
24412;DHT22;12544;46.760;15.942;2022-08-06T00:06:55;25.40;95.10
24412;DHT22;12544;46.760;15.942;2022-08-06T00:09:21;25.40;95.60
24412;DHT22;12544;46.760;15.942;2022-08-06T00:11:46;25.40;95.90
24412;DHT22;12544;46.760;15.942;2022-08-06T00:14:12;25.40;96.20
24412;DHT22;12544;46.760;15.942;2022-08-06T00:16:37;25.40;96.40
24412;DHT22;12544;46.760;15.942;2022-08-06T00:19:03;25.30;96.90
24412;DHT22;12544;46.760;15.942;2022-08-06T00:21:29;25.30;97.30
24412;DHT22;12544;46.760;15.942;2022-08-06T00:23:54;25.30;97.90
24412;DHT22;12544;46.760;15.942;2022-08-06T00:26:20;25.30;98.10
24412;DHT22;12544;46.760;15.942;2022-08-06T00:28:47;25.20;98.30
24412;DHT22;12544;46.760;15.942;2022-08-06T00:31:13;25.20;98.50
24412;DHT22;12544;46.760;15.942;2022-08-06T00:33:39;25.20;98.90
24412;DHT22;12544;46.760;15.942;2022-08-06T00:36:05;25.10;99.30
24412;DHT22;12544;46.760;15.942;2022-08-06T00:38:30;25.10;99.50
24412;DHT22;12544;46.760;15.942;2022-08-06T00:40:57;25.10;99.90
24412;DHT22;12544;46.760;15.942;2022-08-06T00:43:22;25.00;99.90
24412;DHT22;12544;46.760;15.942;2022-08-06T00:45:48;25.00;99.90
24412;DHT22;12544;46.760;15.942;2022-08-06T00:48:13;25.10;99.90
24412;DHT22;12544;46.760;15.942;2022-08-06T00:50:41;25.20;99.90
24412;DHT22;12544;46.760;15.942;2022-08-06T00:53:07;25.20;99.90
24412;DHT22;12544;46.760;15.942;2022-08-06T00:55:32;25.20;99.90
24412;DHT22;12544;46.760;15.942;2022-08-06T00:57:59;25.10;99.90
24412;DHT22;12544;46.760;15.942;2022-08-06T01:00:25;25.00;99.90
24412;DHT22;12544;46.760;15.942;2022-08-06T01:02:50;24.90;99.90
24412;DHT22;12544;46.760;15.942;2022-08-06T01:05:16;24.80;99.90
24412;DHT22;12544;46.760;15.942;2022-08-06T01:07:42;24.70;99.90
24412;DHT22;12544;46.760;15.942;2022-08-06T01:10:08;24.50;99.90
24412;DHT22;12544;46.760;15.942;2022-08-06T01:12:34;24.40;99.90
24412;DHT22;12544;46.760;15.942;2022-08-06T01:14:59;24.30;99.90
24412;DHT22;12544;46.760;15.942;2022-08-06T01:17:35;24.30;99.90
24412;DHT22;12544;46.760;15.942;2022-08-06T01:20:06;24.30;99.90
24412;DHT22;12544;46.760;15.942;2022-08-06T01:28:01;24.20;99.90
24412;DHT22;12544;46.760;15.942;2022-08-06T01:30:29;24.20;99.90
24412;DHT22;12544;46.760;15.942;2022-08-06T01:33:14;24.40;99.90
24412;DHT22;12544;46.760;15.942;2022-08-06T01:35:43;24.40;99.90
24412;DHT22;12544;46.760;15.942;2022-08-06T01:38:10;24.60;99.90
24412;DHT22;12544;46.760;15.942;2022-08-06T01:40:37;24.60;99.90
24412;DHT22;12544;46.760;15.942;2022-08-06T01:43:06;24.70;99.90
24412;DHT22;12544;46.760;15.942;2022-08-06T01:45:33;24.80;99.90
24412;DHT22;12544;46.760;15.942;2022-08-06T01:48:01;24.70;99.90
24412;DHT22;12544;46.760;15.942;2022-08-06T01:50:28;24.70;99.90
24412;DHT22;12544;46.760;15.942;2022-08-06T01:52:56;24.60;99.90
24412;DHT22;12544;46.760;15.942;2022-08-06T01:55:22;24.70;99.90
24412;DHT22;12544;46.760;15.942;2022-08-06T01:57:51;24.80;99.90
24412;DHT22;12544;46.760;15.942;2022-08-06T02:00:18;24.80;99.90
24412;DHT22;12544;46.760;15.942;2022-08-06T02:02:43;24.90;99.90
24412;DHT22;12544;46.760;15.942;2022-08-06T02:05:10;24.90;99.90
24412;DHT22;12544;46.760;15.942;2022-08-06T02:07:38;24.90;99.90
24412;DHT22;12544;46.760;15.942;2022-08-06T02:10:05;24.90;99.90
24412;DHT22;12544;46.760;15.942;2022-08-06T02:12:31;24.80;99.90
24412;DHT22;12544;46.760;15.942;2022-08-06T02:14:59;24.80;99.90
24412;DHT22;12544;46.760;15.942;2022-08-06T02:17:27;24.70;99.90
24412;DHT22;12544;46.760;15.942;2022-08-06T02:19:53;24.70;99.90
24412;DHT22;12544;46.760;15.942;2022-08-06T02:22:21;24.60;99.90
24412;DHT22;12544;46.760;15.942;2022-08-06T02:24:47;24.60;99.90
24412;DHT22;12544;46.760;15.942;2022-08-06T02:27:13;24.60;99.90
24412;DHT22;12544;46.760;15.942;2022-08-06T02:29:40;24.60;99.90
24412;DHT22;12544;46.760;15.942;2022-08-06T02:32:09;24.60;99.90
24412;DHT22;12544;46.760;15.942;2022-08-06T02:34:36;24.60;99.90
24412;DHT22;12544;46.760;15.942;2022-08-06T02:39:28;24.40;99.90
24412;DHT22;12544;46.760;15.942;2022-08-06T02:44:38;24.30;99.90
24412;DHT22;12544;46.760;15.942;2022-08-06T02:47:12;24.30;99.90
24412;DHT22;12544;46.760;15.942;2022-08-06T02:49:40;24.30;99.90
24412;DHT22;12544;46.760;15.942;2022-08-06T02:52:11;24.20;99.90
24412;DHT22;12544;46.760;15.942;2022-08-06T02:54:38;24.20;99.90
24412;DHT22;12544;46.760;15.942;2022-08-06T02:57:05;24.20;99.90
24412;DHT22;12544;46.760;15.942;2022-08-06T02:59:32;24.30;99.90
24412;DHT22;12544;46.760;15.942;2022-08-06T03:01:59;24.20;99.90
24412;DHT22;12544;46.760;15.942;2022-08-06T03:04:25;24.30;99.90
24412;DHT22;12544;46.760;15.942;2022-08-06T03:06:52;24.30;99.90
24412;DHT22;12544;46.760;15.942;2022-08-06T03:09:18;24.30;99.90
24412;DHT22;12544;46.760;15.942;2022-08-06T03:11:44;24.30;99.90
24412;DHT22;12544;46.760;15.942;2022-08-06T03:14:11;24.30;99.90
24412;DHT22;12544;46.760;15.942;2022-08-06T03:16:37;24.30;99.90
24412;DHT22;12544;46.760;15.942;2022-08-06T03:19:09;24.30;99.90
24412;DHT22;12544;46.760;15.942;2022-08-06T03:21:36;24.30;99.90
24412;DHT22;12544;46.760;15.942;2022-08-06T03:24:02;24.30;99.90
24412;DHT22;12544;46.760;15.942;2022-08-06T03:26:28;24.20;99.90
24412;DHT22;12544;46.760;15.942;2022-08-06T03:28:55;24.30;99.90
24412;DHT22;12544;46.760;15.942;2022-08-06T03:31:21;24.30;99.90
24412;DHT22;12544;46.760;15.942;2022-08-06T03:33:48;24.30;99.90
24412;DHT22;12544;46.760;15.942;2022-08-06T03:36:13;24.20;99.90
24412;DHT22;12544;46.760;15.942;2022-08-06T03:38:40;24.20;99.90
24412;DHT22;12544;46.760;15.942;2022-08-06T03:41:06;24.20;99.90
24412;DHT22;12544;46.760;15.942;2022-08-06T03:43:33;24.20;99.90
24412;DHT22;12544;46.760;15.942;2022-08-06T03:45:59;24.20;99.90
24412;DHT22;12544;46.760;15.942;2022-08-06T03:48:28;24.20;99.90
24412;DHT22;12544;46.760;15.942;2022-08-06T03:50:54;24.30;99.90
24412;DHT22;12544;46.760;15.942;2022-08-06T03:53:21;24.30;99.90
24412;DHT22;12544;46.760;15.942;2022-08-06T03:55:47;24.20;99.90
24412;DHT22;12544;46.760;15.942;2022-08-06T03:58:15;24.20;99.90
24412;DHT22;12544;46.760;15.942;2022-08-06T04:00:44;24.30;99.90
24412;DHT22;12544;46.760;15.942;2022-08-06T04:03:10;24.30;99.90
24412;DHT22;12544;46.760;15.942;2022-08-06T04:05:37;24.30;99.90
24412;DHT22;12544;46.760;15.942;2022-08-06T04:08:04;24.30;99.90
24412;DHT22;12544;46.760;15.942;2022-08-06T04:10:31;24.10;99.90
24412;DHT22;12544;46.760;15.942;2022-08-06T04:12:57;24.10;99.90
24412;DHT22;12544;46.760;15.942;2022-08-06T04:15:24;24.00;99.90
24412;DHT22;12544;46.760;15.942;2022-08-06T04:17:50;24.00;99.90
24412;DHT22;12544;46.760;15.942;2022-08-06T04:20:17;23.80;99.90
24412;DHT22;12544;46.760;15.942;2022-08-06T04:22:43;23.70;99.90
24412;DHT22;12544;46.760;15.942;2022-08-06T04:25:09;23.60;99.90
24412;DHT22;12544;46.760;15.942;2022-08-06T04:27:37;23.70;99.90
24412;DHT22;12544;46.760;15.942;2022-08-06T04:30:04;23.80;99.90
24412;DHT22;12544;46.760;15.942;2022-08-06T04:32:30;23.90;99.90
24412;DHT22;12544;46.760;15.942;2022-08-06T04:34:57;24.00;99.90
24412;DHT22;12544;46.760;15.942;2022-08-06T04:37:23;24.00;99.90
24412;DHT22;12544;46.760;15.942;2022-08-06T04:39:48;24.00;99.90
24412;DHT22;12544;46.760;15.942;2022-08-06T04:42:14;24.00;99.90
24412;DHT22;12544;46.760;15.942;2022-08-06T04:44:40;24.10;99.90
24412;DHT22;12544;46.760;15.942;2022-08-06T04:47:06;24.10;99.90
24412;DHT22;12544;46.760;15.942;2022-08-06T04:49:31;24.20;99.90
24412;DHT22;12544;46.760;15.942;2022-08-06T04:51:57;24.30;99.90
24412;DHT22;12544;46.760;15.942;2022-08-06T04:54:23;24.30;99.90
24412;DHT22;12544;46.760;15.942;2022-08-06T04:56:48;24.30;99.90
24412;DHT22;12544;46.760;15.942;2022-08-06T04:59:14;24.50;99.90
24412;DHT22;12544;46.760;15.942;2022-08-06T05:01:39;24.40;99.90
24412;DHT22;12544;46.760;15.942;2022-08-06T05:04:05;24.50;99.90
24412;DHT22;12544;46.760;15.942;2022-08-06T05:06:52;24.50;99.90
24412;DHT22;12544;46.760;15.942;2022-08-06T05:09:22;24.50;99.90
24412;DHT22;12544;46.760;15.942;2022-08-06T05:11:48;24.50;99.90
24412;DHT22;12544;46.760;15.942;2022-08-06T05:14:17;24.40;99.90
24412;DHT22;12544;46.760;15.942;2022-08-06T05:16:45;24.40;99.90
24412;DHT22;12544;46.760;15.942;2022-08-06T05:19:14;24.30;99.90
24412;DHT22;12544;46.760;15.942;2022-08-06T05:21:40;24.30;99.90
24412;DHT22;12544;46.760;15.942;2022-08-06T05:24:06;24.30;99.90
24412;DHT22;12544;46.760;15.942;2022-08-06T05:26:32;24.30;99.90
24412;DHT22;12544;46.760;15.942;2022-08-06T05:28:58;24.30;99.90
24412;DHT22;12544;46.760;15.942;2022-08-06T05:31:37;24.40;99.90
24412;DHT22;12544;46.760;15.942;2022-08-06T05:34:04;24.50;99.90
24412;DHT22;12544;46.760;15.942;2022-08-06T05:36:32;24.60;99.90
24412;DHT22;12544;46.760;15.942;2022-08-06T05:38:57;24.60;99.90
24412;DHT22;12544;46.760;15.942;2022-08-06T05:41:23;24.70;99.90
24412;DHT22;12544;46.760;15.942;2022-08-06T05:43:48;24.70;99.90
24412;DHT22;12544;46.760;15.942;2022-08-06T05:46:15;24.70;99.90
24412;DHT22;12544;46.760;15.942;2022-08-06T05:49:24;24.80;99.90
24412;DHT22;12544;46.760;15.942;2022-08-06T05:54:25;24.70;99.90
24412;DHT22;12544;46.760;15.942;2022-08-06T05:57:00;24.80;99.90
24412;DHT22;12544;46.760;15.942;2022-08-06T05:59:28;24.80;99.90
24412;DHT22;12544;46.760;15.942;2022-08-06T06:01:55;24.80;99.90
24412;DHT22;12544;46.760;15.942;2022-08-06T06:04:21;24.90;99.90
24412;DHT22;12544;46.760;15.942;2022-08-06T06:06:47;24.90;99.90
24412;DHT22;12544;46.760;15.942;2022-08-06T06:09:12;24.90;99.90
24412;DHT22;12544;46.760;15.942;2022-08-06T06:11:39;25.00;99.90
24412;DHT22;12544;46.760;15.942;2022-08-06T06:14:05;25.00;99.90
24412;DHT22;12544;46.760;15.942;2022-08-06T06:16:37;25.10;99.90
24412;DHT22;12544;46.760;15.942;2022-08-06T06:22:38;25.20;99.90
24412;DHT22;12544;46.760;15.942;2022-08-06T06:25:04;25.20;99.90
24412;DHT22;12544;46.760;15.942;2022-08-06T06:27:42;25.30;99.90
24412;DHT22;12544;46.760;15.942;2022-08-06T06:30:11;25.40;99.90
24412;DHT22;12544;46.760;15.942;2022-08-06T06:32:44;25.50;99.90
24412;DHT22;12544;46.760;15.942;2022-08-06T06:40:16;25.70;99.90
24412;DHT22;12544;46.760;15.942;2022-08-06T06:42:45;25.80;99.90
24412;DHT22;12544;46.760;15.942;2022-08-06T06:45:17;25.80;99.90
24412;DHT22;12544;46.760;15.942;2022-08-06T06:47:45;25.90;99.90
24412;DHT22;12544;46.760;15.942;2022-08-06T06:50:22;26.00;99.90
24412;DHT22;12544;46.760;15.942;2022-08-06T06:52:51;26.00;99.90
24412;DHT22;12544;46.760;15.942;2022-08-06T06:55:17;26.10;99.90
24412;DHT22;12544;46.760;15.942;2022-08-06T06:57:48;26.10;99.90
24412;DHT22;12544;46.760;15.942;2022-08-06T07:00:15;26.30;99.90
24412;DHT22;12544;46.760;15.942;2022-08-06T07:02:41;26.40;99.90
24412;DHT22;12544;46.760;15.942;2022-08-06T07:05:07;26.50;99.90
24412;DHT22;12544;46.760;15.942;2022-08-06T07:07:33;26.70;99.90
24412;DHT22;12544;46.760;15.942;2022-08-06T07:10:00;26.80;99.90
24412;DHT22;12544;46.760;15.942;2022-08-06T07:12:27;26.90;99.90
24412;DHT22;12544;46.760;15.942;2022-08-06T07:14:53;27.10;99.90
24412;DHT22;12544;46.760;15.942;2022-08-06T07:17:21;27.20;99.90
24412;DHT22;12544;46.760;15.942;2022-08-06T07:19:48;27.20;99.90
24412;DHT22;12544;46.760;15.942;2022-08-06T07:22:14;27.30;99.90
24412;DHT22;12544;46.760;15.942;2022-08-06T07:24:40;27.40;99.90
24412;DHT22;12544;46.760;15.942;2022-08-06T07:27:07;27.30;99.90
24412;DHT22;12544;46.760;15.942;2022-08-06T07:29:33;27.40;99.90
24412;DHT22;12544;46.760;15.942;2022-08-06T07:31:59;27.40;99.90
24412;DHT22;12544;46.760;15.942;2022-08-06T07:34:27;27.50;99.90
24412;DHT22;12544;46.760;15.942;2022-08-06T07:36:53;27.50;99.90
24412;DHT22;12544;46.760;15.942;2022-08-06T07:39:29;27.50;99.90
24412;DHT22;12544;46.760;15.942;2022-08-06T07:41:58;27.50;99.90
24412;DHT22;12544;46.760;15.942;2022-08-06T07:44:25;27.50;99.90
24412;DHT22;12544;46.760;15.942;2022-08-06T07:46:52;27.50;99.90
24412;DHT22;12544;46.760;15.942;2022-08-06T07:49:21;27.50;99.90
24412;DHT22;12544;46.760;15.942;2022-08-06T07:51:47;27.30;99.30
24412;DHT22;12544;46.760;15.942;2022-08-06T07:54:13;27.30;99.70
24412;DHT22;12544;46.760;15.942;2022-08-06T07:56:40;27.40;99.90
24412;DHT22;12544;46.760;15.942;2022-08-06T07:59:06;27.30;99.60
24412;DHT22;12544;46.760;15.942;2022-08-06T08:01:33;27.40;99.90
24412;DHT22;12544;46.760;15.942;2022-08-06T08:03:59;27.20;98.70
24412;DHT22;12544;46.760;15.942;2022-08-06T08:06:44;27.20;99.60
24412;DHT22;12544;46.760;15.942;2022-08-06T08:09:10;27.10;99.60
24412;DHT22;12544;46.760;15.942;2022-08-06T08:11:37;27.00;99.90
24412;DHT22;12544;46.760;15.942;2022-08-06T08:14:06;26.90;99.30
24412;DHT22;12544;46.760;15.942;2022-08-06T08:16:32;26.90;99.90
24412;DHT22;12544;46.760;15.942;2022-08-06T08:18:58;26.90;99.90
24412;DHT22;12544;46.760;15.942;2022-08-06T08:21:23;27.00;99.90
24412;DHT22;12544;46.760;15.942;2022-08-06T08:23:50;27.10;99.90
24412;DHT22;12544;46.760;15.942;2022-08-06T08:26:17;27.20;99.30
24412;DHT22;12544;46.760;15.942;2022-08-06T08:28:43;27.30;99.80
24412;DHT22;12544;46.760;15.942;2022-08-06T08:31:08;27.40;99.50
24412;DHT22;12544;46.760;15.942;2022-08-06T08:33:36;27.40;99.10
24412;DHT22;12544;46.760;15.942;2022-08-06T08:36:08;27.40;98.90
24412;DHT22;12544;46.760;15.942;2022-08-06T08:38:34;27.50;99.20
24412;DHT22;12544;46.760;15.942;2022-08-06T08:41:14;27.50;98.80
24412;DHT22;12544;46.760;15.942;2022-08-06T08:43:44;27.50;99.10
24412;DHT22;12544;46.760;15.942;2022-08-06T08:46:11;27.50;99.90
24412;DHT22;12544;46.760;15.942;2022-08-06T08:48:37;27.50;99.20
24412;DHT22;12544;46.760;15.942;2022-08-06T08:51:02;27.50;99.50
24412;DHT22;12544;46.760;15.942;2022-08-06T08:53:31;27.40;99.00
24412;DHT22;12544;46.760;15.942;2022-08-06T08:55:58;27.30;99.10
24412;DHT22;12544;46.760;15.942;2022-08-06T08:58:23;27.40;99.90
24412;DHT22;12544;46.760;15.942;2022-08-06T09:00:49;27.40;99.90
24412;DHT22;12544;46.760;15.942;2022-08-06T09:03:15;27.20;99.00
24412;DHT22;12544;46.760;15.942;2022-08-06T09:05:40;27.10;99.20
24412;DHT22;12544;46.760;15.942;2022-08-06T09:08:07;27.00;99.40
24412;DHT22;12544;46.760;15.942;2022-08-06T09:10:34;27.00;99.90
24412;DHT22;12544;46.760;15.942;2022-08-06T09:13:00;27.00;99.60
24412;DHT22;12544;46.760;15.942;2022-08-06T09:15:25;27.10;99.80
24412;DHT22;12544;46.760;15.942;2022-08-06T09:17:51;27.20;99.90
24412;DHT22;12544;46.760;15.942;2022-08-06T09:20:16;27.20;99.80
24412;DHT22;12544;46.760;15.942;2022-08-06T09:22:42;27.40;99.90
24412;DHT22;12544;46.760;15.942;2022-08-06T09:25:34;27.30;99.00
24412;DHT22;12544;46.760;15.942;2022-08-06T09:28:02;27.40;99.40
24412;DHT22;12544;46.760;15.942;2022-08-06T09:30:27;27.50;99.90
24412;DHT22;12544;46.760;15.942;2022-08-06T09:32:53;27.50;98.90
24412;DHT22;12544;46.760;15.942;2022-08-06T09:35:21;27.50;99.00
24412;DHT22;12544;46.760;15.942;2022-08-06T09:37:47;27.50;98.60
24412;DHT22;12544;46.760;15.942;2022-08-06T09:40:14;27.40;98.90
24412;DHT22;12544;46.760;15.942;2022-08-06T09:42:40;27.50;98.20
24412;DHT22;12544;46.760;15.942;2022-08-06T09:45:10;27.50;99.00
24412;DHT22;12544;46.760;15.942;2022-08-06T09:47:36;27.60;99.00
24412;DHT22;12544;46.760;15.942;2022-08-06T09:50:03;27.70;99.20
24412;DHT22;12544;46.760;15.942;2022-08-06T09:52:28;27.70;98.50
24412;DHT22;12544;46.760;15.942;2022-08-06T09:54:54;27.60;98.00
24412;DHT22;12544;46.760;15.942;2022-08-06T09:57:23;27.60;97.90
24412;DHT22;12544;46.760;15.942;2022-08-06T09:59:49;27.50;98.10
24412;DHT22;12544;46.760;15.942;2022-08-06T10:02:15;27.60;97.80
24412;DHT22;12544;46.760;15.942;2022-08-06T10:04:43;27.50;98.20
24412;DHT22;12544;46.760;15.942;2022-08-06T10:07:08;27.40;97.70
24412;DHT22;12544;46.760;15.942;2022-08-06T10:09:34;27.40;98.60
24412;DHT22;12544;46.760;15.942;2022-08-06T10:12:02;27.50;98.40
24412;DHT22;12544;46.760;15.942;2022-08-06T10:14:41;27.50;99.10
24412;DHT22;12544;46.760;15.942;2022-08-06T10:17:11;27.60;99.00
24412;DHT22;12544;46.760;15.942;2022-08-06T10:19:37;27.70;98.80
24412;DHT22;12544;46.760;15.942;2022-08-06T10:22:07;27.70;98.50
24412;DHT22;12544;46.760;15.942;2022-08-06T10:24:35;27.70;98.30
24412;DHT22;12544;46.760;15.942;2022-08-06T10:27:01;27.70;97.50
24412;DHT22;12544;46.760;15.942;2022-08-06T10:29:28;27.80;99.10
24412;DHT22;12544;46.760;15.942;2022-08-06T10:31:54;27.90;98.10
24412;DHT22;12544;46.760;15.942;2022-08-06T10:34:23;27.80;97.90
24412;DHT22;12544;46.760;15.942;2022-08-06T10:36:51;27.70;97.60
24412;DHT22;12544;46.760;15.942;2022-08-06T10:39:20;27.70;98.00
24412;DHT22;12544;46.760;15.942;2022-08-06T10:41:47;27.80;97.20
24412;DHT22;12544;46.760;15.942;2022-08-06T10:44:12;27.70;97.20
24412;DHT22;12544;46.760;15.942;2022-08-06T10:46:38;27.70;98.00
24412;DHT22;12544;46.760;15.942;2022-08-06T10:49:04;27.80;97.80
24412;DHT22;12544;46.760;15.942;2022-08-06T10:51:30;27.90;97.70
24412;DHT22;12544;46.760;15.942;2022-08-06T10:53:56;28.10;98.30
24412;DHT22;12544;46.760;15.942;2022-08-06T10:56:22;28.30;96.80
24412;DHT22;12544;46.760;15.942;2022-08-06T10:58:50;28.40;97.90
24412;DHT22;12544;46.760;15.942;2022-08-06T11:01:22;28.60;97.50
24412;DHT22;12544;46.760;15.942;2022-08-06T11:09:40;28.00;96.70
24412;DHT22;12544;46.760;15.942;2022-08-06T11:14:50;27.70;97.60
24412;DHT22;12544;46.760;15.942;2022-08-06T11:17:16;27.40;97.20
24412;DHT22;12544;46.760;15.942;2022-08-06T11:19:43;27.10;98.20
24412;DHT22;12544;46.760;15.942;2022-08-06T11:22:31;26.90;98.20
24412;DHT22;12544;46.760;15.942;2022-08-06T11:24:54;27.00;98.20
24412;DHT22;12544;46.760;15.942;2022-08-06T11:30:08;26.80;98.50
24412;DHT22;12544;46.760;15.942;2022-08-06T11:32:50;26.70;99.10
24412;DHT22;12544;46.760;15.942;2022-08-06T11:35:37;26.50;98.20
24412;DHT22;12544;46.760;15.942;2022-08-06T11:38:02;26.40;99.10
24412;DHT22;12544;46.760;15.942;2022-08-06T11:41:16;26.40;99.60
24412;DHT22;12544;46.760;15.942;2022-08-06T11:51:45;26.40;98.70
24412;DHT22;12544;46.760;15.942;2022-08-06T11:59:21;26.40;99.30
24412;DHT22;12544;46.760;15.942;2022-08-06T12:01:48;26.30;99.90
24412;DHT22;12544;46.760;15.942;2022-08-06T12:07:44;26.40;99.90
24412;DHT22;12544;46.760;15.942;2022-08-06T12:09:44;26.30;99.90
24412;DHT22;12544;46.760;15.942;2022-08-06T12:14:48;26.10;99.50
24412;DHT22;12544;46.760;15.942;2022-08-06T12:17:14;26.10;99.80
24412;DHT22;12544;46.760;15.942;2022-08-06T12:19:44;26.30;99.90
24412;DHT22;12544;46.760;15.942;2022-08-06T12:22:14;26.10;99.90
24412;DHT22;12544;46.760;15.942;2022-08-06T12:24:43;26.00;99.90
24412;DHT22;12544;46.760;15.942;2022-08-06T12:27:11;25.80;99.90
24412;DHT22;12544;46.760;15.942;2022-08-06T12:29:37;25.90;99.90
24412;DHT22;12544;46.760;15.942;2022-08-06T12:34:48;26.30;99.90
24412;DHT22;12544;46.760;15.942;2022-08-06T12:37:14;26.30;99.90
24412;DHT22;12544;46.760;15.942;2022-08-06T12:39:40;26.20;99.90
24412;DHT22;12544;46.760;15.942;2022-08-06T12:42:25;26.30;99.90
24412;DHT22;12544;46.760;15.942;2022-08-06T12:44:51;26.50;99.90
24412;DHT22;12544;46.760;15.942;2022-08-06T12:47:16;26.50;99.90
24412;DHT22;12544;46.760;15.942;2022-08-06T12:49:42;26.70;99.80
24412;DHT22;12544;46.760;15.942;2022-08-06T12:52:15;26.80;99.60
24412;DHT22;12544;46.760;15.942;2022-08-06T12:54:44;27.00;99.50
24412;DHT22;12544;46.760;15.942;2022-08-06T12:57:19;27.10;98.50
24412;DHT22;12544;46.760;15.942;2022-08-06T12:59:45;27.30;98.30
24412;DHT22;12544;46.760;15.942;2022-08-06T13:02:11;27.30;98.50
24412;DHT22;12544;46.760;15.942;2022-08-06T13:04:37;27.20;98.10
24412;DHT22;12544;46.760;15.942;2022-08-06T13:07:04;27.40;98.30
24412;DHT22;12544;46.760;15.942;2022-08-06T13:09:30;27.50;98.10
24412;DHT22;12544;46.760;15.942;2022-08-06T13:11:56;27.40;97.70
24412;DHT22;12544;46.760;15.942;2022-08-06T13:14:21;27.30;98.00
24412;DHT22;12544;46.760;15.942;2022-08-06T13:16:47;27.00;96.70
24412;DHT22;12544;46.760;15.942;2022-08-06T13:19:14;26.90;97.40
24412;DHT22;12544;46.760;15.942;2022-08-06T13:21:41;26.90;97.20
24412;DHT22;12544;46.760;15.942;2022-08-06T13:24:07;26.90;96.50
24412;DHT22;12544;46.760;15.942;2022-08-06T13:26:34;26.90;96.70
24412;DHT22;12544;46.760;15.942;2022-08-06T13:29:19;26.70;96.00
24412;DHT22;12544;46.760;15.942;2022-08-06T13:31:46;26.60;96.50
24412;DHT22;12544;46.760;15.942;2022-08-06T13:34:15;26.30;96.40
24412;DHT22;12544;46.760;15.942;2022-08-06T13:36:43;26.10;96.30
24412;DHT22;12544;46.760;15.942;2022-08-06T13:39:23;26.10;96.50
24412;DHT22;12544;46.760;15.942;2022-08-06T13:42:02;26.10;96.50
24412;DHT22;12544;46.760;15.942;2022-08-06T13:44:29;26.20;96.50
24412;DHT22;12544;46.760;15.942;2022-08-06T13:46:54;26.50;97.60
24412;DHT22;12544;46.760;15.942;2022-08-06T13:49:20;26.90;96.90
24412;DHT22;12544;46.760;15.942;2022-08-06T13:51:45;27.20;95.50
24412;DHT22;12544;46.760;15.942;2022-08-06T13:54:11;27.30;95.40
24412;DHT22;12544;46.760;15.942;2022-08-06T13:56:36;27.40;94.60
24412;DHT22;12544;46.760;15.942;2022-08-06T13:59:02;27.50;95.60
24412;DHT22;12544;46.760;15.942;2022-08-06T14:01:28;27.40;94.60
24412;DHT22;12544;46.760;15.942;2022-08-06T14:03:53;27.40;94.30
24412;DHT22;12544;46.760;15.942;2022-08-06T14:06:20;27.30;94.50
24412;DHT22;12544;46.760;15.942;2022-08-06T14:08:45;27.40;94.20
24412;DHT22;12544;46.760;15.942;2022-08-06T14:11:11;27.40;94.10
24412;DHT22;12544;46.760;15.942;2022-08-06T14:13:36;27.30;94.20
24412;DHT22;12544;46.760;15.942;2022-08-06T14:16:02;27.30;93.50
24412;DHT22;12544;46.760;15.942;2022-08-06T14:18:28;27.50;93.20
24412;DHT22;12544;46.760;15.942;2022-08-06T14:20:54;27.40;93.10
24412;DHT22;12544;46.760;15.942;2022-08-06T14:23:20;27.30;92.90
24412;DHT22;12544;46.760;15.942;2022-08-06T14:25:45;27.40;93.60
24412;DHT22;12544;46.760;15.942;2022-08-06T14:28:11;27.30;93.20
24412;DHT22;12544;46.760;15.942;2022-08-06T14:30:36;27.30;94.10
24412;DHT22;12544;46.760;15.942;2022-08-06T14:33:03;27.40;93.40
24412;DHT22;12544;46.760;15.942;2022-08-06T14:35:30;27.30;92.90
24412;DHT22;12544;46.760;15.942;2022-08-06T14:37:55;27.20;92.80
24412;DHT22;12544;46.760;15.942;2022-08-06T14:40:21;26.90;92.50
24412;DHT22;12544;46.760;15.942;2022-08-06T14:43:06;26.80;92.80
24412;DHT22;12544;46.760;15.942;2022-08-06T14:45:50;26.80;92.60
24412;DHT22;12544;46.760;15.942;2022-08-06T14:48:15;26.80;93.00
24412;DHT22;12544;46.760;15.942;2022-08-06T14:50:42;26.80;93.30
24412;DHT22;12544;46.760;15.942;2022-08-06T14:53:07;27.00;93.60
24412;DHT22;12544;46.760;15.942;2022-08-06T14:55:33;27.10;92.40
24412;DHT22;12544;46.760;15.942;2022-08-06T14:57:58;27.00;93.10
24412;DHT22;12544;46.760;15.942;2022-08-06T15:00:24;26.90;93.10
24412;DHT22;12544;46.760;15.942;2022-08-06T15:02:57;26.90;92.60
24412;DHT22;12544;46.760;15.942;2022-08-06T15:05:23;26.70;92.70
24412;DHT22;12544;46.760;15.942;2022-08-06T15:07:48;26.40;93.00
24412;DHT22;12544;46.760;15.942;2022-08-06T15:10:14;26.30;93.70
24412;DHT22;12544;46.760;15.942;2022-08-06T15:12:39;26.30;93.40
24412;DHT22;12544;46.760;15.942;2022-08-06T15:15:05;26.00;92.70
24412;DHT22;12544;46.760;15.942;2022-08-06T15:17:39;25.80;93.10
24412;DHT22;12544;46.760;15.942;2022-08-06T15:20:04;25.70;92.60
24412;DHT22;12544;46.760;15.942;2022-08-06T15:22:30;25.60;93.20
24412;DHT22;12544;46.760;15.942;2022-08-06T15:24:55;25.70;93.50
24412;DHT22;12544;46.760;15.942;2022-08-06T15:27:21;25.60;93.80
24412;DHT22;12544;46.760;15.942;2022-08-06T15:29:47;25.70;93.20
24412;DHT22;12544;46.760;15.942;2022-08-06T15:32:12;25.40;93.30
24412;DHT22;12544;46.760;15.942;2022-08-06T15:34:38;25.40;93.50
24412;DHT22;12544;46.760;15.942;2022-08-06T15:37:03;25.30;94.10
24412;DHT22;12544;46.760;15.942;2022-08-06T15:39:31;25.30;93.80
24412;DHT22;12544;46.760;15.942;2022-08-06T15:41:57;25.30;94.60
24412;DHT22;12544;46.760;15.942;2022-08-06T15:44:23;25.20;94.40
24412;DHT22;12544;46.760;15.942;2022-08-06T15:46:48;25.20;95.10
24412;DHT22;12544;46.760;15.942;2022-08-06T15:49:14;25.40;94.90
24412;DHT22;12544;46.760;15.942;2022-08-06T15:51:39;25.40;94.50
24412;DHT22;12544;46.760;15.942;2022-08-06T15:54:05;25.30;94.50
24412;DHT22;12544;46.760;15.942;2022-08-06T15:56:30;25.30;94.40
24412;DHT22;12544;46.760;15.942;2022-08-06T15:58:56;25.20;94.90
24412;DHT22;12544;46.760;15.942;2022-08-06T16:01:22;25.10;95.00
24412;DHT22;12544;46.760;15.942;2022-08-06T16:03:47;25.10;95.20
24412;DHT22;12544;46.760;15.942;2022-08-06T16:06:13;24.90;95.20
24412;DHT22;12544;46.760;15.942;2022-08-06T16:08:38;25.00;95.30
24412;DHT22;12544;46.760;15.942;2022-08-06T16:11:04;24.80;95.30
24412;DHT22;12544;46.760;15.942;2022-08-06T16:13:30;24.70;95.60